Racecast

Amor Booker

Virginia Beach Flames (VA) · 1 · Compare head to head

Athlete rating
Races 29
Seasons 1 2026
Speed rating — all races

Track & Field

TF speed rating

2026 TF

Virginia Beach Flames (VA) · Grade 1

Date Meet Event Result Place Rating Difficulty PR/SR Flags
2026-06-13 AAU Virginia District Qualifier - South 400m 1:39.87 17th · 1st on team -0.033 ★PR SR
2026-06-13 AAU Virginia District Qualifier - South 200m 39.3 22nd · 3rd on team -0.033 ★PR SR
2026-05-30 Va Beach Flames Invite javelin 20' 1" -0.023
2026-05-30 Va Beach Flames Invite 100m 19 55th · 3rd on team -0.023
2026-05-30 Va Beach Flames Invite 200m 44.76 37th · 3rd on team -0.023
2026-05-24 HR Hurricanes CAT 5 Invite 100m 19.08 43rd · 2nd on team -0.035
2026-05-24 HR Hurricanes CAT 5 Invite 200m 42.19 35th · 3rd on team -0.035
2026-05-16 2026 Technique Relays javelin 23' 9" -0.035
2026-05-16 2026 Technique Relays 100m 18.2 32nd · 3rd on team -0.035 ★PR SR
2026-05-16 2026 Technique Relays 400m 1:41.58 19th · 4th on team -0.035 PR SR
2026-05-09 VA "Legends" T & F Youth Invite 50m 10.96 21st · 2nd on team -0.033 ★PR SR
2026-04-26 Virginia Pride Spring Kick-Off 400m 1:42.75 48th · 4th on team -0.029
2026-04-26 Virginia Pride Spring Kick-Off 200m 43.79 51st · 3rd on team -0.029
2026-04-26 Virginia Pride Spring Kick-Off 100m 21.18 59th · 3rd on team -0.029 PR SR
2026-03-06 AAU Indoor National Championship 60m 12.48 154th · 4th on team -0.036 ★PR SR
2026-03-06 AAU Indoor National Championship 200m 41.68 135th · 4th on team -0.036
2026-02-28 BWSP Queens and Kings Championships 200m 41.24 32nd · 3rd on team -0.024 PR SR
2026-02-28 BWSP Queens and Kings Championships 55m 11.73 48th · 2nd on team -0.024
2026-02-22 3rd Annual HRH Winter Storm Classic 400m 1:42.19 13th · 3rd on team -0.024 PR SR
2026-02-22 3rd Annual HRH Winter Storm Classic 200m 45.05 41st · 4th on team -0.024 PR SR
2026-02-22 3rd Annual HRH Winter Storm Classic 55m 11.25 54th · 5th on team -0.024
2026-01-31 BWSP Queens and Kings - Meet 3 55m 11.63 43rd · 5th on team -0.024
2026-01-31 BWSP Queens and Kings - Meet 3 400m 1:46.61 17th · 3rd on team -0.024
2026-01-17 BWSP Queens and Kings - Meet 2 55m 11.14 57th · 5th on team -0.024 ★PR SR
2026-01-17 BWSP Queens and Kings - Meet 2 200m 45.92 47th · 6th on team -0.024
2026-01-17 BWSP Queens and Kings - Meet 2 400m 1:46.59 28th · 6th on team -0.024
2026-01-03 BWSP Queens and Kings - Meet 1 200m 46.67 43rd · 3rd on team -0.024
2026-01-03 BWSP Queens and Kings - Meet 1 400m 1:44.87 19th · 2nd on team -0.024 PR SR
2025-12-20 2025 Howard White Holiday Track Classic 200m 45.29 41st · 1st on team -0.024 PR SR